createdAt,value
2019-01-15T18:59:24.758Z,1001.38
2019-01-15T19:00:24.544Z,1001.29
2019-01-15T19:01:26.002Z,1001.31
2019-01-15T19:02:24.522Z,1001.42
2019-01-15T19:03:25.643Z,1001.42
2019-01-15T19:04:24.505Z,1001.34
2019-01-15T19:05:24.635Z,1001.42
2019-01-15T19:06:24.492Z,1001.35
2019-01-15T19:07:24.559Z,1001.40
2019-01-15T19:08:24.487Z,1001.49
2019-01-15T19:09:24.595Z,1001.38
2019-01-15T19:10:24.439Z,1001.41
2019-01-15T19:11:24.643Z,1001.43
2019-01-15T19:12:24.429Z,1001.41
2019-01-15T19:13:24.500Z,1001.39
2019-01-15T19:14:24.390Z,1001.35
2019-01-15T19:15:24.661Z,1001.48
2019-01-15T19:16:24.585Z,1001.48
2019-01-15T19:17:24.453Z,1001.35
2019-01-15T19:18:24.347Z,1001.38
2019-01-15T19:19:24.365Z,1001.40
2019-01-15T19:20:24.322Z,1001.50
2019-01-15T19:21:24.476Z,1001.50
2019-01-15T19:22:24.400Z,1001.44
2019-01-15T19:23:25.518Z,1001.37
2019-01-15T19:24:24.323Z,1001.44
2019-01-15T19:25:24.373Z,1001.16
2019-01-15T19:26:24.578Z,1001.42
2019-01-15T19:27:24.691Z,1001.39
2019-01-15T19:28:24.233Z,1001.45
2019-01-15T19:29:24.305Z,1001.41
2019-01-15T19:30:24.275Z,1001.40
2019-01-15T19:31:24.272Z,1001.43
2019-01-15T19:32:24.205Z,1001.43
2019-01-15T19:33:24.245Z,1001.46
2019-01-15T19:34:24.183Z,1001.47
2019-01-15T19:35:24.211Z,1001.45
2019-01-15T19:36:24.146Z,1001.39
2019-01-15T19:37:24.353Z,1001.44
2019-01-15T19:38:24.124Z,1001.40
2019-01-15T19:39:25.171Z,1001.39
2019-01-15T19:40:24.105Z,1001.51
2019-01-15T19:41:24.216Z,1001.46
2019-01-15T19:42:24.122Z,1001.44
2019-01-15T19:43:24.192Z,1001.48
2019-01-15T19:44:24.054Z,1001.57
2019-01-15T19:45:24.163Z,1001.49
2019-01-15T19:46:24.041Z,1001.47
2019-01-15T19:47:24.174Z,1001.46
2019-01-15T19:48:24.011Z,1001.49
2019-01-15T19:49:24.096Z,1001.49
2019-01-15T19:50:24.149Z,1001.59
2019-01-15T19:51:25.088Z,1001.48
2019-01-15T19:52:23.990Z,1001.53
2019-01-15T19:53:24.036Z,1001.55
2019-01-15T19:54:23.944Z,1001.47
2019-01-15T19:55:24.004Z,1001.57
2019-01-15T19:56:23.923Z,1001.58
2019-01-15T19:57:24.012Z,1001.57
2019-01-15T19:58:23.899Z,1001.52
2019-01-15T19:59:23.939Z,1001.53
2019-01-15T20:00:23.877Z,1001.55
2019-01-15T20:01:23.905Z,1001.58
2019-01-15T20:02:23.857Z,1001.62
2019-01-15T20:03:24.937Z,1001.56
2019-01-15T20:04:23.837Z,1001.53
2019-01-15T20:05:23.943Z,1001.52
2019-01-15T20:06:23.819Z,1001.55
2019-01-15T20:07:23.909Z,1001.75
2019-01-15T20:08:23.807Z,1001.72
2019-01-15T20:09:23.878Z,1001.72
2019-01-15T20:10:23.765Z,1001.71
2019-01-15T20:11:23.848Z,1001.66
2019-01-15T20:12:23.743Z,1001.76
2019-01-15T20:13:23.851Z,1001.82
2019-01-15T20:14:23.722Z,1001.79
2019-01-15T20:15:23.784Z,1001.74
2019-01-15T20:16:23.697Z,1001.85
2019-01-15T20:17:23.755Z,1001.99
2019-01-15T20:18:23.693Z,1001.81
2019-01-15T20:19:23.730Z,1001.74
2019-01-15T20:20:23.661Z,1001.81
2019-01-15T20:21:23.692Z,1001.82
2019-01-15T20:22:23.629Z,1001.73
2019-01-15T20:23:23.696Z,1001.88
2019-01-15T20:24:23.617Z,1001.92
2019-01-15T20:25:23.634Z,1001.88
2019-01-15T20:26:23.596Z,1001.80
2019-01-15T20:27:23.695Z,1001.80
2019-01-15T20:28:23.590Z,1001.94
2019-01-15T20:29:23.681Z,1001.99
2019-01-15T20:30:23.567Z,1001.83
2019-01-15T20:31:23.643Z,1001.89
2019-01-15T20:32:23.525Z,1001.86
2019-01-15T20:33:23.644Z,1001.92
2019-01-15T20:34:23.509Z,1001.95
2019-01-15T20:35:23.570Z,1001.95
2019-01-15T20:36:23.647Z,1001.88
2019-01-15T20:37:24.068Z,1001.98
2019-01-15T20:38:23.480Z,1001.94
2019-01-15T20:39:23.520Z,1001.91
2019-01-15T20:40:23.436Z,1001.96
2019-01-15T20:41:23.469Z,1002.03
2019-01-15T20:42:23.408Z,1002.00
2019-01-15T20:43:23.486Z,1002.04
2019-01-15T20:44:23.384Z,1001.96
2019-01-15T20:45:23.407Z,1002.08
2019-01-15T20:46:23.596Z,1002.11
2019-01-15T20:47:25.757Z,1002.08
2019-01-15T20:48:23.392Z,1002.08
2019-01-15T20:49:23.444Z,1002.11
2019-01-15T20:50:23.324Z,1002.08
2019-01-15T20:51:23.461Z,1002.12
2019-01-15T20:52:23.310Z,1002.04
2019-01-15T20:53:23.387Z,1002.10
2019-01-15T20:54:23.287Z,1002.16
2019-01-15T20:55:23.354Z,1002.09
2019-01-15T20:56:23.270Z,1002.18
2019-01-15T20:57:23.334Z,1002.11
2019-01-15T20:58:23.348Z,1002.18
2019-01-15T20:59:23.326Z,1002.21
2019-01-15T21:00:23.217Z,1002.15
2019-01-15T21:01:23.278Z,1002.13
2019-01-15T21:02:23.196Z,1002.12
2019-01-15T21:03:23.226Z,1002.12
2019-01-15T21:04:23.177Z,1002.12
2019-01-15T21:05:23.200Z,1002.15
2019-01-15T21:06:23.141Z,1002.14
2019-01-15T21:07:23.201Z,1002.15
2019-01-15T21:08:23.123Z,1002.14
2019-01-15T21:09:23.170Z,1002.14
2019-01-15T21:10:23.099Z,1002.09
2019-01-15T21:11:24.120Z,1002.12
2019-01-15T21:12:23.074Z,1002.09
2019-01-15T21:13:23.169Z,1002.17
2019-01-15T21:14:23.072Z,1002.14
2019-01-15T21:15:23.146Z,1002.20
2019-01-15T21:16:23.036Z,1002.17
2019-01-15T21:17:23.103Z,1002.19
2019-01-15T21:18:23.033Z,1002.18
2019-01-15T21:19:23.117Z,1002.17
2019-01-15T21:20:22.987Z,1002.20
2019-01-15T21:21:23.041Z,1002.20
2019-01-15T21:22:22.968Z,1002.17
2019-01-15T21:23:23.044Z,1002.17
2019-01-15T21:24:22.965Z,1002.13
2019-01-15T21:25:22.975Z,1002.19
2019-01-15T21:26:22.922Z,1002.25
2019-01-15T21:27:22.943Z,1002.21
2019-01-15T21:28:22.904Z,1002.30
2019-01-15T21:29:22.947Z,1002.25
2019-01-15T21:30:22.889Z,1002.21
2019-01-15T21:31:22.982Z,1002.35
2019-01-15T21:32:24.402Z,1002.35
2019-01-15T21:33:22.888Z,1002.35
2019-01-15T21:34:22.828Z,1002.34
2019-01-15T21:35:22.954Z,1002.34
2019-01-15T21:36:22.819Z,1002.32
2019-01-15T21:37:22.888Z,1002.27
2019-01-15T21:38:22.788Z,1002.17
2019-01-15T21:39:23.881Z,1002.23
2019-01-15T21:40:22.782Z,1002.29
2019-01-15T21:41:22.826Z,1002.29
2019-01-15T21:42:22.738Z,1002.28
2019-01-15T21:43:23.818Z,1002.31
2019-01-15T21:44:22.722Z,1002.27
2019-01-15T21:45:26.276Z,1002.30
2019-01-15T21:46:22.694Z,1002.33
2019-01-15T21:47:25.799Z,1002.35
2019-01-15T21:48:22.682Z,1002.32
2019-01-15T21:49:23.857Z,1002.40
2019-01-15T21:50:22.669Z,1002.34
2019-01-15T21:51:23.692Z,1002.39
2019-01-15T21:52:22.634Z,1002.32
2019-01-15T21:53:22.740Z,1002.40
2019-01-15T21:54:22.627Z,1002.28
2019-01-15T21:55:22.738Z,1002.37
2019-01-15T21:56:22.587Z,1002.35
2019-01-15T21:57:22.671Z,1002.28
2019-01-15T21:58:22.567Z,1002.31
